createdAt,value
2019-02-22T00:01:49.351Z,32.33
2019-02-22T00:04:19.577Z,29.60
2019-02-22T00:06:49.844Z,31.73
2019-02-22T00:09:20.056Z,35.47
2019-02-22T00:11:50.135Z,32.73
2019-02-22T00:14:20.847Z,38.20
2019-02-22T00:16:51.207Z,36.60
2019-02-22T00:19:21.289Z,39.43
2019-02-22T00:21:51.377Z,36.17
2019-02-22T00:24:21.461Z,35.70
2019-02-22T00:26:51.826Z,33.30
2019-02-22T00:29:21.900Z,35.30
2019-02-22T00:31:52.060Z,38.73
2019-02-22T00:34:23.829Z,36.53
2019-02-22T00:36:54.214Z,34.10
2019-02-22T00:39:24.527Z,38.53
2019-02-22T00:41:54.704Z,37.60
2019-02-22T00:44:25.067Z,38.17
2019-02-22T00:46:55.249Z,38.67
2019-02-22T00:49:26.308Z,37.10
2019-02-22T00:51:56.383Z,36.27
2019-02-22T00:54:26.538Z,36.80
2019-02-22T00:56:56.691Z,37.90
2019-02-22T00:59:27.053Z,37.73
2019-02-22T01:01:57.135Z,36.87
2019-02-22T01:04:27.483Z,33.70
2019-02-22T01:06:57.579Z,31.27
2019-02-22T01:09:27.684Z,33.90
2019-02-22T01:11:57.832Z,36.27
2019-02-22T01:14:27.987Z,30.03
2019-02-22T01:16:58.113Z,33.53
2019-02-22T01:19:28.177Z,27.70
2019-02-22T01:21:58.484Z,31.90
2019-02-22T01:24:28.593Z,28.40
2019-02-22T01:26:58.700Z,28.40
2019-02-22T01:29:28.856Z,29.13
2019-02-22T01:31:59.010Z,27.20
2019-02-22T01:34:29.092Z,29.33
2019-02-22T01:36:59.178Z,27.47
2019-02-22T01:39:29.247Z,33.30
2019-02-22T01:41:59.966Z,37.20
2019-02-22T01:44:30.179Z,35.80
2019-02-22T01:47:00.329Z,33.40
2019-02-22T01:49:30.732Z,38.23
2019-02-22T01:52:00.953Z,38.43
2019-02-22T01:54:31.096Z,33.73
2019-02-22T01:57:01.282Z,40.80
2019-02-22T01:59:31.738Z,43.53
2019-02-22T02:02:02.984Z,43.87
2019-02-22T02:04:34.059Z,41.57
2019-02-22T02:07:04.524Z,45.57
2019-02-22T02:09:34.895Z,50.80
2019-02-22T02:12:04.999Z,41.20
2019-02-22T02:14:35.223Z,42.40
2019-02-22T02:17:05.300Z,45.23
2019-02-22T02:19:36.755Z,46.87
2019-02-22T02:22:07.007Z,45.97
2019-02-22T02:24:37.093Z,44.13
2019-02-22T02:27:07.271Z,41.77
2019-02-22T02:29:37.308Z,45.40
2019-02-22T02:32:07.403Z,42.83
2019-02-22T02:34:37.787Z,42.67
2019-02-22T02:37:08.006Z,43.17
2019-02-22T02:39:38.116Z,40.03
2019-02-22T02:42:08.209Z,36.30
2019-02-22T02:44:38.399Z,40.07
2019-02-22T02:47:08.592Z,39.37
2019-02-22T02:49:38.937Z,42.17
2019-02-22T02:52:09.084Z,39.17
2019-02-22T02:54:40.715Z,38.50
2019-02-22T02:57:11.113Z,41.07
2019-02-22T02:59:41.199Z,43.37
2019-02-22T03:02:19.953Z,46.27
2019-02-22T03:04:50.146Z,36.93
2019-02-22T03:07:38.028Z,44.17
2019-02-22T03:10:08.682Z,48.17
2019-02-22T03:12:38.749Z,49.80
2019-02-22T03:15:10.781Z,49.47
2019-02-22T03:17:41.163Z,44.50
2019-02-22T03:20:11.283Z,49.33
2019-02-22T03:22:41.479Z,45.23
2019-02-22T03:25:11.845Z,45.40
2019-02-22T03:27:42.260Z,43.50
2019-02-22T03:30:12.464Z,46.87
2019-02-22T03:32:42.636Z,50.77
2019-02-22T03:35:12.686Z,47.90
2019-02-22T03:37:42.805Z,48.70
2019-02-22T03:40:13.171Z,55.10
2019-02-22T03:42:45.154Z,51.17
2019-02-22T03:45:15.447Z,63.20
2019-02-22T03:47:45.681Z,56.77
2019-02-22T03:50:15.795Z,64.50
2019-02-22T03:52:49.467Z,63.50
2019-02-22T03:55:19.741Z,66.80
2019-02-22T03:57:49.919Z,79.30
2019-02-22T04:00:20.331Z,64.97
2019-02-22T04:02:50.421Z,73.50
2019-02-22T04:05:20.523Z,75.07
2019-02-22T04:07:50.593Z,82.77
2019-02-22T04:10:20.848Z,76.80
2019-02-22T04:12:50.956Z,77.37
2019-02-22T04:15:20.949Z,85.35
2019-02-22T04:17:51.364Z,75.80
2019-02-22T04:20:21.600Z,71.57
2019-02-22T04:22:51.790Z,78.00
2019-02-22T04:25:21.871Z,73.43
2019-02-22T04:27:52.101Z,76.23
2019-02-22T04:30:22.380Z,76.97
2019-02-22T04:32:52.487Z,79.67
2019-02-22T04:35:22.565Z,82.30
2019-02-22T04:37:52.640Z,84.93
2019-02-22T04:40:22.814Z,77.90
2019-02-22T04:42:52.936Z,75.23
2019-02-22T04:45:22.899Z,88.37
2019-02-22T04:47:53.047Z,75.80
2019-02-22T04:50:23.119Z,76.73
2019-02-22T04:52:53.906Z,71.90
2019-02-22T04:55:24.050Z,75.03
2019-02-22T04:57:54.148Z,82.50
2019-02-22T05:00:24.579Z,55.90
2019-02-22T05:03:00.498Z,74.00
2019-02-22T05:05:30.853Z,74.80
2019-02-22T05:08:01.054Z,85.87
2019-02-22T05:10:33.983Z,75.70
2019-02-22T05:13:04.168Z,70.07
2019-02-22T05:15:34.185Z,75.77
2019-02-22T05:18:04.355Z,74.20
2019-02-22T05:20:34.849Z,72.73
2019-02-22T05:23:07.450Z,68.00
2019-02-22T05:25:37.870Z,69.53
2019-02-22T05:28:07.973Z,69.87
2019-02-22T05:30:38.157Z,64.83
2019-02-22T05:33:08.313Z,72.63
2019-02-22T05:35:38.675Z,73.70
2019-02-22T05:38:08.907Z,78.80
2019-02-22T05:40:39.117Z,74.30
2019-02-22T05:43:09.201Z,73.17
2019-02-22T05:45:39.297Z,89.63
2019-02-22T05:48:12.955Z,96.83
2019-02-22T05:50:43.110Z,99.37
2019-02-22T05:53:13.258Z,97.07
2019-02-22T05:55:44.423Z,93.57
2019-02-22T05:58:14.906Z,89.75
2019-02-22T06:00:45.004Z,97.07
2019-02-22T06:03:16.174Z,93.37
2019-02-22T06:05:46.360Z,102.40
2019-02-22T06:08:16.464Z,95.80
2019-02-22T06:10:47.031Z,102.97
2019-02-22T06:13:17.164Z,88.47
2019-02-22T06:15:47.253Z,93.33
2019-02-22T06:18:17.440Z,85.00
2019-02-22T06:20:47.509Z,95.23
2019-02-22T06:23:17.671Z,104.47
2019-02-22T06:25:48.258Z,98.33
2019-02-22T06:28:18.470Z,81.50
2019-02-22T06:30:48.664Z,91.60
2019-02-22T06:33:18.907Z,90.77
2019-02-22T06:35:49.119Z,96.17
2019-02-22T06:38:19.363Z,105.30
2019-02-22T06:40:49.822Z,114.10
2019-02-22T06:43:23.039Z,116.27
2019-02-22T06:45:54.292Z,97.80
2019-02-22T06:48:24.361Z,106.10
2019-02-22T06:50:54.595Z,104.97
2019-02-22T06:53:24.954Z,98.97
2019-02-22T06:55:55.057Z,95.20
2019-02-22T06:58:25.201Z,102.23
2019-02-22T07:00:55.283Z,110.23
2019-02-22T07:03:25.466Z,89.10
2019-02-22T07:05:55.637Z,96.37
2019-02-22T07:08:26.069Z,97.77
2019-02-22T07:11:08.911Z,89.00
2019-02-22T07:13:39.172Z,90.47
2019-02-22T07:16:09.309Z,95.77
2019-02-22T07:18:39.393Z,65.60
2019-02-22T07:21:09.489Z,86.37
2019-02-22T07:23:39.608Z,88.87
2019-02-22T07:26:09.696Z,101.70
2019-02-22T07:28:39.869Z,92.20
2019-02-22T07:31:10.265Z,84.90
2019-02-22T07:33:40.849Z,96.07
2019-02-22T07:36:10.979Z,97.03
2019-02-22T07:38:41.396Z,93.83
2019-02-22T07:41:11.563Z,100.77
2019-02-22T07:43:41.782Z,105.27
2019-02-22T07:46:11.870Z,97.40
2019-02-22T07:48:42.245Z,93.37
2019-02-22T07:51:12.415Z,115.47
2019-02-22T07:53:42.619Z,104.43
2019-02-22T07:56:12.701Z,108.27
2019-02-22T07:58:44.954Z,93.53
2019-02-22T08:01:15.589Z,122.75
2019-02-22T08:03:45.800Z,113.53
2019-02-22T08:06:15.936Z,110.33
2019-02-22T08:08:48.434Z,121.53
2019-02-22T08:11:18.874Z,120.60
2019-02-22T08:13:48.959Z,106.57
2019-02-22T08:16:19.671Z,120.47
2019-02-22T08:19:00.631Z,125.33
2019-02-22T08:21:21.700Z,141.07
2019-02-22T08:23:51.971Z,132.57
2019-02-22T08:26:22.392Z,127.87
2019-02-22T08:28:52.572Z,117.33
2019-02-22T08:31:22.777Z,125.60
2019-02-22T08:33:52.962Z,116.33
2019-02-22T08:36:23.201Z,125.17
2019-02-22T08:38:53.694Z,117.87
2019-02-22T08:41:23.855Z,109.87
2019-02-22T08:43:53.966Z,117.97
2019-02-22T08:46:24.354Z,123.60
2019-02-22T08:48:54.581Z,122.73
2019-02-22T08:51:24.770Z,108.37
2019-02-22T08:53:54.929Z,112.03
2019-02-22T08:56:24.992Z,102.00
2019-02-22T08:58:55.257Z,88.67
2019-02-22T09:01:26.681Z,90.97
2019-02-22T09:03:57.174Z,92.03
2019-02-22T09:06:27.259Z,86.83
2019-02-22T09:08:57.516Z,88.93
2019-02-22T09:11:27.636Z,85.80
2019-02-22T09:13:57.806Z,78.53
2019-02-22T09:16:29.194Z,84.47
2019-02-22T09:18:59.369Z,85.53
2019-02-22T09:21:29.643Z,82.03
2019-02-22T09:23:59.933Z,91.43
2019-02-22T09:26:30.221Z,86.60
2019-02-22T09:29:00.471Z,85.37
2019-02-22T09:31:30.744Z,94.10
2019-02-22T09:34:00.845Z,85.23
2019-02-22T09:36:31.139Z,78.30
2019-02-22T09:39:01.244Z,81.87
2019-02-22T09:41:32.952Z,77.83
2019-02-22T09:44:03.082Z,85.43
2019-02-22T09:46:35.621Z,75.10
2019-02-22T09:49:06.074Z,78.70
2019-02-22T09:51:45.976Z,79.93
2019-02-22T09:54:16.316Z,84.20
2019-02-22T09:56:46.500Z,87.07
2019-02-22T09:59:16.918Z,79.55
2019-02-22T10:01:47.018Z,74.17
2019-02-22T10:04:17.266Z,78.10
2019-02-22T10:06:47.510Z,66.93
2019-02-22T10:09:18.088Z,77.30
2019-02-22T10:11:48.352Z,64.13
2019-02-22T10:14:18.561Z,58.40
2019-02-22T10:16:48.936Z,63.70
2019-02-22T10:19:19.075Z,65.77
2019-02-22T10:21:49.337Z,63.07
2019-02-22T10:24:19.447Z,63.97
2019-02-22T10:26:49.566Z,60.20
2019-02-22T10:29:20.071Z,62.33
2019-02-22T10:31:50.561Z,61.43
2019-02-22T10:34:21.128Z,64.47
2019-02-22T10:36:51.259Z,60.40
2019-02-22T10:39:21.364Z,57.47
2019-02-22T10:41:51.707Z,60.80
2019-02-22T10:44:22.051Z,61.53
2019-02-22T10:46:52.156Z,55.93
2019-02-22T10:49:22.305Z,55.70
2019-02-22T10:52:04.204Z,58.37
2019-02-22T10:54:34.489Z,56.57
2019-02-22T10:57:05.376Z,49.53
2019-02-22T10:59:36.801Z,63.50
2019-02-22T11:02:07.219Z,52.37
2019-02-22T11:04:37.324Z,50.77
2019-02-22T11:07:07.557Z,52.90
2019-02-22T11:09:37.766Z,53.60
2019-02-22T11:12:08.259Z,53.47
2019-02-22T11:14:38.406Z,58.40
2019-02-22T11:17:08.560Z,49.60
2019-02-22T11:19:38.648Z,52.67
2019-02-22T11:22:08.740Z,49.27
2019-02-22T11:24:38.846Z,51.47
2019-02-22T11:27:09.234Z,46.93
2019-02-22T11:29:39.580Z,46.30
2019-02-22T11:32:09.648Z,47.20
2019-02-22T11:34:40.054Z,51.47
2019-02-22T11:37:10.563Z,49.00
2019-02-22T11:39:40.724Z,45.47
2019-02-22T11:42:11.401Z,49.18
2019-02-22T11:44:41.522Z,44.17
2019-02-22T11:47:11.720Z,46.70
2019-02-22T11:49:41.823Z,41.37
2019-02-22T11:52:11.904Z,43.47
2019-02-22T11:54:42.257Z,41.50
2019-02-22T11:57:12.999Z,42.63
2019-02-22T11:59:43.400Z,37.83
2019-02-22T12:02:13.565Z,42.63
2019-02-22T12:04:43.864Z,38.87
2019-02-22T12:07:14.090Z,41.30
2019-02-22T12:09:44.441Z,38.97
2019-02-22T12:12:14.755Z,37.03
2019-02-22T12:14:51.611Z,41.70
2019-02-22T12:17:16.736Z,42.77
2019-02-22T12:19:47.083Z,42.20
2019-02-22T12:22:17.592Z,39.10
2019-02-22T12:24:47.701Z,38.77
2019-02-22T12:27:17.818Z,42.63
2019-02-22T12:29:48.087Z,34.43
2019-02-22T12:32:18.548Z,32.83
2019-02-22T12:34:48.875Z,38.17
2019-02-22T12:37:20.535Z,35.37
2019-02-22T12:39:50.819Z,32.80
2019-02-22T12:42:22.392Z,32.77
2019-02-22T12:45:02.552Z,33.80
2019-02-22T12:47:24.629Z,32.87
2019-02-22T12:49:55.045Z,31.00
2019-02-22T12:52:25.542Z,31.47
2019-02-22T12:54:55.833Z,29.20
2019-02-22T12:57:25.994Z,30.77
2019-02-22T12:59:56.108Z,28.90
2019-02-22T13:02:26.338Z,28.97
2019-02-22T13:04:56.734Z,28.07
2019-02-22T13:07:26.869Z,30.80
2019-02-22T13:09:57.090Z,26.73
2019-02-22T13:12:27.330Z,29.97
2019-02-22T13:14:57.768Z,30.87
2019-02-22T13:17:30.862Z,28.43
2019-02-22T13:19:59.828Z,28.77
2019-02-22T13:22:30.028Z,32.27
2019-02-22T13:25:09.834Z,30.53
2019-02-22T13:27:40.078Z,27.17
2019-02-22T13:30:11.486Z,26.27
2019-02-22T13:32:41.697Z,29.33
2019-02-22T13:35:12.212Z,29.37
2019-02-22T13:37:43.668Z,28.00
2019-02-22T13:40:14.910Z,22.83
2019-02-22T13:42:45.007Z,22.13
2019-02-22T13:45:25.990Z,23.20
2019-02-22T13:47:47.267Z,21.00
2019-02-22T13:50:17.399Z,24.90
2019-02-22T13:52:48.124Z,19.83
2019-02-22T13:55:18.476Z,18.83
2019-02-22T13:57:48.847Z,16.80
2019-02-22T14:00:19.021Z,16.50
2019-02-22T14:02:49.278Z,18.60
2019-02-22T14:05:19.486Z,21.30
2019-02-22T14:07:53.812Z,17.67
2019-02-22T14:10:24.536Z,18.10
2019-02-22T14:12:54.893Z,19.43
2019-02-22T14:15:25.034Z,17.47
2019-02-22T14:17:55.155Z,19.57
2019-02-22T14:20:25.283Z,17.80
2019-02-22T14:22:55.504Z,19.30
2019-02-22T14:25:25.621Z,20.30
2019-02-22T14:27:55.941Z,21.40
2019-02-22T14:30:26.464Z,22.67
2019-02-22T14:32:56.718Z,23.10
2019-02-22T14:35:26.996Z,20.30
2019-02-22T14:37:57.211Z,21.17
2019-02-22T14:40:29.678Z,17.90
2019-02-22T14:43:00.081Z,16.20
2019-02-22T14:45:30.327Z,16.33
2019-02-22T14:48:00.485Z,15.73
2019-02-22T14:50:30.697Z,17.47
2019-02-22T14:53:01.060Z,18.90
2019-02-22T14:55:31.300Z,16.70
2019-02-22T14:58:01.444Z,14.97
2019-02-22T15:00:31.633Z,15.00
2019-02-22T15:03:01.903Z,20.33
2019-02-22T15:05:32.219Z,15.80
2019-02-22T15:08:02.450Z,15.90
2019-02-22T15:10:32.962Z,16.00
2019-02-22T15:13:03.267Z,20.60
2019-02-22T15:16:00.189Z,15.13
2019-02-22T15:18:24.372Z,16.57
2019-02-22T15:20:54.671Z,15.60
2019-02-22T15:23:24.854Z,13.63
2019-02-22T15:25:55.210Z,17.23
2019-02-22T15:28:26.453Z,14.90
2019-02-22T15:30:56.915Z,18.63
2019-02-22T15:33:27.282Z,11.57
2019-02-22T15:35:57.560Z,10.80
2019-02-22T15:38:27.730Z,10.10
2019-02-22T15:40:59.782Z,10.47
2019-02-22T15:43:30.247Z,10.20
2019-02-22T15:46:11.516Z,12.60
2019-02-22T15:48:32.387Z,11.00
2019-02-22T15:51:05.279Z,10.83
2019-02-22T15:53:34.458Z,14.20
2019-02-22T15:56:04.554Z,11.47
2019-02-22T15:58:34.733Z,13.80
2019-02-22T16:01:04.942Z,12.00
2019-02-22T16:03:59.407Z,15.63
2019-02-22T16:06:32.213Z,14.83
2019-02-22T16:09:01.702Z,15.10
2019-02-22T16:11:33.715Z,16.30
2019-02-22T16:14:07.017Z,17.77
2019-02-22T16:16:36.657Z,16.27
2019-02-22T16:19:06.814Z,15.87
2019-02-22T16:21:36.912Z,19.00
2019-02-22T16:24:07.085Z,15.53
2019-02-22T16:26:37.537Z,18.40
2019-02-22T16:29:07.636Z,14.37
2019-02-22T16:31:37.935Z,17.00
2019-02-22T16:34:08.076Z,13.27
2019-02-22T16:36:38.178Z,13.03
2019-02-22T16:39:08.651Z,11.77
2019-02-22T16:41:40.566Z,12.20
2019-02-22T16:44:10.689Z,11.87
2019-02-22T16:46:42.739Z,11.90
2019-02-22T16:49:12.933Z,13.23
2019-02-22T16:51:44.482Z,13.27
2019-02-22T16:54:15.173Z,10.17
2019-02-22T16:56:45.328Z,11.33
2019-02-22T16:59:15.796Z,9.75
2019-02-22T17:01:45.887Z,8.60
2019-02-22T17:04:18.710Z,9.80
2019-02-22T17:06:48.099Z,10.50
2019-02-22T17:09:18.358Z,9.03
2019-02-22T17:11:48.753Z,7.57
2019-02-22T17:14:18.939Z,7.23
2019-02-22T17:16:49.338Z,9.30
2019-02-22T17:19:20.865Z,29.77
2019-02-22T17:21:51.092Z,10.13
2019-02-22T17:24:21.240Z,6.70
2019-02-22T17:26:51.632Z,13.13
2019-02-22T17:29:21.944Z,10.97
2019-02-22T17:31:52.049Z,8.70
2019-02-22T17:34:22.385Z,17.20
2019-02-22T17:36:52.756Z,33.10
2019-02-22T17:39:22.953Z,13.77
2019-02-22T17:41:53.168Z,13.93
2019-02-22T17:44:23.426Z,12.63
2019-02-22T17:46:57.589Z,10.10
2019-02-22T17:49:25.477Z,9.40
2019-02-22T17:51:55.876Z,13.33
2019-02-22T17:54:25.963Z,8.80
2019-02-22T17:56:56.095Z,11.23
2019-02-22T17:59:26.263Z,10.70
2019-02-22T18:01:56.490Z,11.10
2019-02-22T18:04:26.858Z,14.27
2019-02-22T18:06:57.084Z,44.80
2019-02-22T18:09:27.179Z,15.57
2019-02-22T18:11:57.361Z,13.20
2019-02-22T18:14:27.533Z,12.07
2019-02-22T18:17:07.984Z,13.70
2019-02-22T18:19:32.613Z,18.60
2019-02-22T18:22:03.105Z,18.33
2019-02-22T18:24:33.291Z,22.10
2019-02-22T18:27:03.381Z,19.60
2019-02-22T18:29:35.728Z,10.70
2019-02-22T18:32:05.590Z,10.60
2019-02-22T18:34:36.057Z,8.83
2019-02-22T18:37:07.258Z,9.15
2019-02-22T18:39:37.386Z,9.43
2019-02-22T18:42:07.456Z,8.57
2019-02-22T18:44:37.752Z,9.63
2019-02-22T18:47:18.756Z,8.17
2019-02-22T18:49:40.079Z,8.00
2019-02-22T18:52:10.504Z,9.03
2019-02-22T18:54:40.714Z,8.30
2019-02-22T18:57:12.311Z,8.57
2019-02-22T18:59:42.400Z,6.20
2019-02-22T19:02:12.655Z,6.00
2019-02-22T19:04:43.244Z,6.23
2019-02-22T19:07:13.830Z,6.17
2019-02-22T19:09:44.123Z,5.73
2019-02-22T19:12:14.611Z,6.07
2019-02-22T19:14:44.783Z,5.50
2019-02-22T19:17:15.209Z,6.60
2019-02-22T19:19:45.303Z,5.57
2019-02-22T19:22:15.536Z,6.50
2019-02-22T19:24:45.659Z,6.33
2019-02-22T19:27:15.913Z,6.33
2019-02-22T19:29:46.313Z,6.70
2019-02-22T19:32:16.732Z,7.93
2019-02-22T19:34:46.861Z,8.30
2019-02-22T19:37:17.127Z,8.90
2019-02-22T19:39:47.677Z,10.80
2019-02-22T19:42:17.867Z,10.10
2019-02-22T19:44:48.051Z,13.43
2019-02-22T19:47:18.578Z,10.80
2019-02-22T19:49:48.719Z,12.03
2019-02-22T19:52:18.985Z,11.63
2019-02-22T19:54:49.474Z,11.80
2019-02-22T19:57:19.702Z,10.80
2019-02-22T19:59:52.828Z,10.30
2019-02-22T20:02:22.968Z,11.37
2019-02-22T20:04:53.495Z,10.47
2019-02-22T20:07:23.664Z,13.13
2019-02-22T20:09:53.877Z,14.40
2019-02-22T20:12:24.071Z,13.70
2019-02-22T20:14:54.509Z,12.53
2019-02-22T20:17:24.716Z,12.20
2019-02-22T20:19:54.974Z,12.13
2019-02-22T20:22:25.085Z,11.83
2019-02-22T20:24:56.491Z,12.20
2019-02-22T20:27:26.664Z,9.67
2019-02-22T20:29:56.796Z,10.77
2019-02-22T20:32:26.965Z,11.87
2019-02-22T20:34:57.095Z,10.80
2019-02-22T20:37:27.203Z,10.90
2019-02-22T20:39:57.606Z,10.37
2019-02-22T20:42:28.978Z,10.37
2019-02-22T20:44:59.253Z,11.73
2019-02-22T20:47:29.632Z,10.37
2019-02-22T20:49:59.852Z,10.40
2019-02-22T20:52:30.057Z,10.63
2019-02-22T20:55:00.332Z,9.27
2019-02-22T20:57:31.083Z,9.10
2019-02-22T21:00:01.465Z,9.83
2019-02-22T21:02:31.979Z,11.40
2019-02-22T21:05:02.237Z,11.00
2019-02-22T21:07:33.316Z,10.03
2019-02-22T21:10:04.139Z,11.97
2019-02-22T21:12:34.371Z,11.47
2019-02-22T21:15:05.219Z,11.20
2019-02-22T21:17:35.356Z,12.33
2019-02-22T21:20:06.713Z,11.63
2019-02-22T21:22:37.040Z,10.67
2019-02-22T21:25:09.132Z,10.95
2019-02-22T21:27:39.356Z,11.20
2019-02-22T21:30:11.523Z,10.60
2019-02-22T21:32:43.060Z,10.80
2019-02-22T21:35:13.799Z,11.03
2019-02-22T21:37:44.081Z,12.07
2019-02-22T21:40:15.987Z,12.13
2019-02-22T21:42:46.099Z,10.93
2019-02-22T21:45:16.148Z,11.97
2019-02-22T21:47:54.086Z,11.80
2019-02-22T21:50:18.376Z,9.97
2019-02-22T21:52:48.560Z,10.97
2019-02-22T21:55:19.258Z,11.68
2019-02-22T21:57:49.864Z,13.67
2019-02-22T22:00:20.081Z,11.23
2019-02-22T22:02:51.040Z,10.60
2019-02-22T22:05:21.321Z,10.30
2019-02-22T22:07:51.496Z,11.10
2019-02-22T22:10:23.111Z,11.50
2019-02-22T22:12:53.197Z,15.27
2019-02-22T22:15:23.241Z,13.03
2019-02-22T22:17:53.454Z,11.27
2019-02-22T22:20:23.669Z,13.05
2019-02-22T22:22:54.183Z,14.10
2019-02-22T22:25:24.313Z,11.80
2019-02-22T22:27:56.330Z,11.90
2019-02-22T22:30:26.469Z,13.10
2019-02-22T22:32:56.684Z,12.73
2019-02-22T22:35:27.105Z,11.43
2019-02-22T22:37:57.264Z,12.80
2019-02-22T22:40:27.641Z,11.50
2019-02-22T22:42:59.086Z,12.40
2019-02-22T22:45:29.441Z,14.90
2019-02-22T22:47:59.777Z,14.70
2019-02-22T22:50:30.241Z,14.50
2019-02-22T22:53:00.367Z,16.63
2019-02-22T22:55:31.158Z,12.83
2019-02-22T22:58:01.422Z,11.67
2019-02-22T23:00:56.620Z,13.73
2019-02-22T23:03:26.889Z,12.40
2019-02-22T23:05:57.504Z,12.50
2019-02-22T23:08:28.148Z,11.48
2019-02-22T23:10:58.359Z,13.20
2019-02-22T23:13:28.546Z,14.83
2019-02-22T23:15:59.126Z,12.20
2019-02-22T23:18:29.287Z,12.97
2019-02-22T23:20:59.529Z,15.23
2019-02-22T23:23:29.746Z,12.80
2019-02-22T23:26:00.429Z,11.77
2019-02-22T23:28:30.560Z,11.60
2019-02-22T23:31:00.886Z,12.93
2019-02-22T23:33:31.408Z,12.23
2019-02-22T23:36:01.664Z,12.10
2019-02-22T23:38:31.837Z,13.73
2019-02-22T23:41:02.047Z,14.70
2019-02-22T23:43:34.178Z,15.10
2019-02-22T23:46:04.371Z,12.90
2019-02-22T23:48:34.520Z,11.73
2019-02-22T23:51:04.771Z,12.43
2019-02-22T23:53:34.931Z,13.47
2019-02-22T23:56:05.371Z,12.63
2019-02-22T23:58:35.520Z,12.83
